EDT,Max TemperatureF,Mean TemperatureF,Min TemperatureF,Max Dew PointF,MeanDew PointF,Min DewpointF,Max Humidity, Mean Humidity, Min Humidity, Max Sea Level PressureIn, Mean Sea Level PressureIn, Min Sea Level PressureIn, Max VisibilityMiles, Mean VisibilityMiles, Min VisibilityMiles, Max Wind SpeedMPH, Mean Wind SpeedMPH, Max Gust SpeedMPH,PrecipitationIn, CloudCover, Events, WindDirDegrees
2011-10-1,66,59,52,59,50,44,89,67,45,29.84,29.76,29.67,10,10,6,14,6,18,0.22,5,Rain,299
2011-10-2,61,55,49,47,42,38,86,67,47,30.01,29.90,29.83,10,10,10,14,7,21,T,5,Rain,261
2011-10-3,63,56,48,46,43,41,74,62,49,30.13,30.05,29.99,10,10,10,16,5,24,T,5,Rain,235
2011-10-4,71,61,50,52,48,44,83,65,47,30.17,30.13,30.09,10,10,10,16,6,24,0.00,3,,300
2011-10-5,76,68,60,58,54,51,84,65,46,30.22,30.18,30.13,10,10,10,15,6,21,0.00,0,,339
2011-10-6,71,62,53,57,52,48,80,65,49,30.37,30.32,30.23,10,10,10,10,10,14,0.00,0,,60
2011-10-7,70,60,50,55,51,47,89,71,52,30.47,30.42,30.36,10,10,10,10,3,14,0.00,0,,22
2011-10-8,72,63,54,59,55,50,90,74,57,30.51,30.47,30.44,10,10,10,15,7,20,0.00,1,,52
2011-10-9,73,64,54,61,58,53,93,75,57,30.46,30.39,30.32,10,10,10,10,4,13,0.00,0,,44
2011-10-10,75,66,57,65,61,56,100,82,64,30.30,30.21,30.12,10,9,6,9,5,12,0.00,1,Fog,39
2011-10-11,71,70,68,68,66,64,97,91,84,30.11,30.05,29.98,10,8,5,15,8,20,T,6,Rain,57
2011-10-12,73,71,69,68,66,64,97,91,84,29.96,29.89,29.79,10,8,2,6,7,7,T,8,Rain,103
2011-10-13,82,75,67,70,68,66,100,84,67,29.79,29.71,29.61,10,6,0,16,8,22,0.17,6,Rain-Thunderstorm,164
2011-10-14,76,65,54,67,56,43,100,69,37,29.79,29.61,29.53,10,10,8,22,10,29,0.00,3,,223
2011-10-15,76,64,52,47,41,33,77,49,21,29.97,29.87,29.81,10,10,10,21,10,30,0.00,0,,237
2011-10-16,76,63,49,47,43,38,74,50,25,30.11,29.99,29.88,10,10,10,25,10,31,0.00,0,,227
2011-10-17,84,74,63,59,52,48,73,53,32,29.87,29.84,29.79,10,10,10,21,11,26,0.00,1,,229
2011-10-18,86,75,63,67,59,54,84,59,34,29.87,29.82,29.75,10,10,10,17,10,21,T,2,Rain,206
2011-10-19,78,73,68,72,69,66,93,86,79,29.69,29.44,29.29,10,8,2,24,12,32,0.74,7,Rain,158
2011-10-20,71,62,52,65,45,40,77,59,40,29.89,29.64,29.37,10,10,10,30,17,39,0.00,3,,230
2011-10-21,68,58,48,52,45,42,80,62,44,30.09,30.01,29.91,10,10,10,13,5,17,0.00,1,,243
2011-10-22,64,57,49,52,47,44,83,68,52,30.14,30.11,30.08,10,10,10,17,6,20,0.00,3,,33
2011-10-23,65,57,48,51,47,44,93,71,48,30.16,30.13,30.10,10,10,10,12,5,17,0.00,0,,55
2011-10-24,67,58,49,53,50,47,89,73,56,30.14,30.07,30.01,10,10,6,12,3,15,0.00,1,Fog,38
2011-10-25,69,61,52,51,44,38,83,58,32,30.22,30.15,30.05,10,10,9,23,7,32,0.00,0,,347
2011-10-26,77,66,54,54,48,42,72,57,41,30.15,29.99,29.86,10,10,10,25,12,32,0.00,1,,218
2011-10-27,80,69,58,55,52,48,72,54,36,29.93,29.78,29.65,10,10,10,26,17,38,0.00,3,,232
2011-10-28,58,54,49,52,44,39,86,74,61,30.19,30.11,29.97,10,8,3,22,16,26,0.08,8,Rain,33
2011-10-29,64,53,42,59,48,35,93,85,76,30.04,29.86,29.72,10,8,0,20,11,29,0.41,7,Fog-Rain,324
2011-10-30,55,47,38,38,34,30,79,60,41,30.37,30.25,30.05,10,10,10,15,6,25,0.00,1,,339
2011-10-31,62,50,38,52,43,35,93,70,46,30.37,30.28,30.17,10,9,4,20,6,25,0.51,4,Rain,84